Time;durP1;ratioP1;P1;durP2;ratioP2;P2;SDS_P1;SDS_P2;PMS_P1;PMS_P2;Temp;Humidity;BMP_temperature;BMP_pressure;BME280_temperature;BME280_humidity;BME280_pressure;Samples;Min_cycle;Max_cycle;Signal;HPM_P1;HPM_P2
2023/04/21 04:18:18;;;;;;;31.53;21.93;;;;;;;4.59;100.00;95848.09;6186136;23;20092;-93
2023/04/21 04:47:01;;;;;;;134.93;17.60;;;;;;;4.05;100.00;95864.81;6169099;23;20024;-92
2023/04/21 04:50:13;;;;;;;59.17;14.97;;;;;;;4.10;100.00;95857.47;6136484;23;20052;-94
2023/04/21 04:53:46;;;;;;;266.53;23.80;;;;;;;4.18;100.00;95867.22;6155581;23;20337;-93
2023/04/21 04:56:29;;;;;;;221.67;25.03;;;;;;;4.25;100.00;95877.00;6083096;23;20026;-93
2023/04/21 04:59:53;;;;;;;345.30;28.90;;;;;;;4.33;100.00;95876.38;5995745;23;20035;-94
2023/04/21 05:03:07;;;;;;;321.30;29.33;;;;;;;4.42;100.00;95883.38;5962656;23;20031;-93
2023/04/21 05:09:54;;;;;;;213.03;23.53;;;;;;;4.57;100.00;95883.06;6011666;23;20083;-94
2023/04/21 05:12:46;;;;;;;178.63;22.63;;;;;;;4.58;100.00;95897.72;6009158;23;20015;-94
2023/04/21 05:15:58;;;;;;;316.43;27.23;;;;;;;4.54;100.00;95897.16;5951844;24;20031;-87
2023/04/21 05:18:23;;;;;;;256.92;25.27;;;;;;;4.68;100.00;95894.19;6020673;23;1184549;-91
2023/04/21 05:20:50;;;;;;;222.33;24.27;;;;;;;4.71;100.00;95899.13;6151214;23;20022;-92
2023/04/21 05:23:44;;;;;;;205.20;23.07;;;;;;;4.65;100.00;95904.88;6129428;23;20032;-92
2023/04/21 05:26:11;;;;;;;155.23;22.37;;;;;;;4.78;100.00;95909.84;6133250;23;20033;-92
2023/04/21 05:28:37;;;;;;;104.53;20.70;;;;;;;4.77;100.00;95915.22;6143461;23;20024;-92
2023/04/21 05:31:04;;;;;;;115.53;20.03;;;;;;;4.92;100.00;95911.28;6133212;23;20014;-92
2023/04/21 05:33:36;;;;;;;120.60;19.80;;;;;;;5.08;100.00;95911.59;6126741;23;20028;-91
2023/04/21 05:36:09;;;;;;;232.17;24.43;;;;;;;5.25;100.00;95915.34;6127360;23;20015;-91
2023/04/21 05:38:35;;;;;;;90.68;20.23;;;;;;;5.33;100.00;95918.13;6151750;23;20040;-91
2023/04/21 05:41:04;;;;;;;430.47;34.90;;;;;;;5.10;100.00;95916.69;6127362;23;20434;-91
2023/04/21 05:43:32;;;;;;;290.60;27.80;;;;;;;5.08;100.00;95900.34;6103084;23;20457;-92
2023/04/21 05:45:58;;;;;;;190.73;26.07;;;;;;;5.15;100.00;95901.47;6127518;23;20493;-91
2023/04/21 05:48:36;;;;;;;288.30;32.80;;;;;;;5.31;100.00;95904.38;6127946;23;20109;-93
2023/04/21 05:51:18;;;;;;;440.60;46.17;;;;;;;5.42;100.00;95888.59;6152835;23;20044;-92
2023/04/21 05:53:44;;;;;;;610.97;53.20;;;;;;;5.49;100.00;95885.44;6127176;23;20028;-91
2023/04/21 05:56:12;;;;;;;473.67;41.27;;;;;;;5.47;100.00;95884.78;6127098;23;20017;-92
2023/04/21 05:58:38;;;;;;;355.17;33.60;;;;;;;5.62;100.00;95878.19;6127099;23;20430;-92
2023/04/21 06:01:05;;;;;;;281.80;29.87;;;;;;;5.37;100.00;95890.00;6127687;23;20021;-92
2023/04/21 06:03:31;;;;;;;252.93;29.50;;;;;;;5.55;100.00;95895.34;6127402;23;20052;-91
2023/04/21 06:06:01;;;;;;;255.10;28.00;;;;;;;5.67;100.00;95892.47;6127134;23;20060;-92
2023/04/21 06:08:26;;;;;;;63.70;20.73;;;;;;;5.76;100.00;95895.22;6127346;23;20024;-91
2023/04/21 06:10:52;;;;;;;60.07;19.03;;;;;;;6.10;100.00;95882.56;6127469;23;20021;-91
2023/04/21 06:13:18;;;;;;;37.77;19.43;;;;;;;5.94;100.00;95882.34;6126988;23;20013;-89
2023/04/21 06:15:43;;;;;;;37.77;18.73;;;;;;;6.42;100.00;95878.78;6133005;23;20002;-89
2023/04/21 06:18:09;;;;;;;28.53;19.40;;;;;;;6.58;100.00;95882.44;6140675;23;20205;-89
2023/04/21 06:20:34;;;;;;;27.00;17.70;;;;;;;6.59;100.00;95893.72;6136590;23;20009;-91
2023/04/21 06:23:00;;;;;;;25.00;17.27;;;;;;;6.79;100.00;95884.00;6157705;23;20024;-92
2023/04/21 06:29:13;;;;;;;21.33;15.20;;;;;;;7.55;100.00;95881.09;6186154;23;20019;-92
2023/04/21 06:31:39;;;;;;;22.53;15.70;;;;;;;7.79;100.00;95875.25;6136079;23;20099;-93
2023/04/21 06:34:04;;;;;;;20.30;14.30;;;;;;;7.89;100.00;95864.72;6159420;23;20009;-92
2023/04/21 06:36:36;;;;;;;19.90;15.67;;;;;;;7.65;100.00;95866.16;6167046;23;20005;-92
2023/04/21 06:39:46;;;;;;;21.73;15.67;;;;;;;7.70;100.00;95856.03;6145579;23;20064;-93
2023/04/21 06:42:29;;;;;;;20.97;15.80;;;;;;;7.64;100.00;95867.09;6134749;23;20020;-90
2023/04/21 06:44:55;;;;;;;21.80;15.93;;;;;;;7.73;100.00;95862.78;6133344;23;20013;-90
2023/04/21 06:47:21;;;;;;;23.10;16.23;;;;;;;7.63;100.00;95856.78;6133795;23;20016;-90
2023/04/21 06:50:01;;;;;;;26.23;17.60;;;;;;;7.78;100.00;95845.66;6133882;23;20108;-91
2023/04/21 06:52:26;;;;;;;24.97;17.00;;;;;;;8.03;100.00;95843.19;6137704;23;20024;-93
2023/04/21 06:54:52;;;;;;;23.10;17.27;;;;;;;7.88;100.00;95835.09;6136595;23;20001;-93
2023/04/21 06:57:18;;;;;;;27.47;18.70;;;;;;;7.67;100.00;95840.63;6134288;23;20009;-91
2023/04/21 06:59:44;;;;;;;25.50;19.00;;;;;;;7.85;100.00;95839.81;6159063;23;20071;-91
2023/04/21 07:02:10;;;;;;;27.07;17.57;;;;;;;7.77;100.00;95843.16;6159400;23;20215;-91
2023/04/21 07:04:41;;;;;;;23.20;17.10;;;;;;;8.11;100.00;95840.63;6133992;23;20507;-91
2023/04/21 07:07:07;;;;;;;24.80;18.13;;;;;;;8.28;100.00;95833.69;6158855;23;20044;-92
2023/04/21 07:09:32;;;;;;;25.57;17.43;;;;;;;8.53;100.00;95832.06;6157633;23;20067;-91
2023/04/21 07:11:59;;;;;;;25.83;18.53;;;;;;;8.62;100.00;95822.47;6151692;23;20004;-91
2023/04/21 07:14:25;;;;;;;24.33;18.23;;;;;;;8.23;100.00;95821.06;6128844;23;20009;-92
2023/04/21 07:16:51;;;;;;;25.70;18.20;;;;;;;8.43;100.00;95834.00;6130215;23;20020;-92
2023/04/21 07:19:28;;;;;;;27.00;19.50;;;;;;;8.76;100.00;95823.66;6133746;23;20024;-92
2023/04/21 07:21:54;;;;;;;24.43;17.80;;;;;;;9.04;100.00;95825.06;6133810;23;20013;-89
2023/04/21 07:24:19;;;;;;;24.63;18.07;;;;;;;9.14;100.00;95823.13;6133880;23;20028;-89
2023/04/21 07:26:54;;;;;;;28.03;19.10;;;;;;;9.15;100.00;95823.94;6134025;23;20020;-89
2023/04/21 07:29:20;;;;;;;26.37;18.47;;;;;;;9.34;100.00;95817.59;6135054;23;20028;-89
2023/04/21 07:31:49;;;;;;;25.97;18.20;;;;;;;9.84;100.00;95812.19;6134160;23;20441;-89
2023/04/21 07:34:14;;;;;;;26.83;18.37;;;;;;;9.66;100.00;95799.25;6133924;23;20015;-89
2023/04/21 07:36:40;;;;;;;25.10;19.03;;;;;;;9.49;100.00;95805.47;6134449;23;20048;-88
2023/04/21 07:39:08;;;;;;;25.73;18.73;;;;;;;9.55;100.00;95804.00;6159083;23;20008;-89
2023/04/21 07:41:33;;;;;;;26.50;18.43;;;;;;;9.69;100.00;95808.56;6134250;23;20013;-89
2023/04/21 07:44:00;;;;;;;24.63;17.33;;;;;;;9.37;100.00;95798.91;6135072;23;20067;-89
2023/04/21 07:46:29;;;;;;;23.80;17.23;;;;;;;9.31;100.00;95799.53;6134812;23;20017;-89
2023/04/21 07:48:56;;;;;;;27.00;18.70;;;;;;;9.11;100.00;95806.88;6134616;23;20329;-89
2023/04/21 07:51:24;;;;;;;25.70;17.53;;;;;;;9.48;100.00;95805.63;6133607;23;20021;-89
2023/04/21 07:53:52;;;;;;;24.00;17.40;;;;;;;9.49;100.00;95809.88;6158964;23;20017;-89
2023/04/21 07:56:22;;;;;;;25.57;17.03;;;;;;;9.49;100.00;95805.47;6133963;23;20092;-89
2023/04/21 07:58:54;;;;;;;25.40;17.53;;;;;;;9.75;100.00;95802.69;6134753;23;20123;-89
2023/04/21 08:01:21;;;;;;;25.38;16.83;;;;;;;9.77;100.00;95813.03;6159304;23;20016;-89
2023/04/21 08:03:46;;;;;;;27.57;18.57;;;;;;;10.08;100.00;95807.91;6160253;23;20024;-89
2023/04/21 08:06:12;;;;;;;25.70;17.60;;;;;;;10.45;100.00;95798.66;6158946;23;20017;-89
2023/04/21 08:08:38;;;;;;;26.63;17.97;;;;;;;10.33;100.00;95790.34;6139220;23;20021;-89
2023/04/21 08:11:21;;;;;;;28.27;17.80;;;;;;;10.74;100.00;95795.44;6162065;23;20013;-89
2023/04/21 08:13:49;;;;;;;23.30;16.90;;;;;;;11.55;100.00;95787.06;6135639;23;20063;-90
2023/04/21 08:16:15;;;;;;;22.70;16.57;;;;;;;12.00;100.00;95781.94;6131576;23;20075;-89
2023/04/21 08:18:43;;;;;;;21.00;16.20;;;;;;;11.84;100.00;95782.94;6131367;23;20009;-89
2023/04/21 08:21:18;;;;;;;23.20;16.27;;;;;;;12.66;100.00;95774.16;6105633;23;20014;-89
2023/04/21 08:23:44;;;;;;;20.70;16.13;;;;;;;13.61;100.00;95757.34;6106474;23;20017;-90
2023/04/21 08:26:09;;;;;;;19.70;14.73;;;;;;;13.56;100.00;95754.47;6106223;23;20095;-90
2023/04/21 08:28:35;;;;;;;21.87;16.40;;;;;;;13.82;100.00;95754.72;6106642;23;20013;-91
2023/04/21 08:31:17;;;;;;;20.63;14.77;;;;;;;12.95;100.00;95766.22;6106033;23;20018;-90
2023/04/21 08:33:43;;;;;;;21.97;16.50;;;;;;;13.95;100.00;95756.66;6105203;23;20068;-90
2023/04/21 08:36:10;;;;;;;22.10;16.07;;;;;;;13.88;100.00;95759.25;6105731;23;20009;-90
2023/04/21 08:38:37;;;;;;;22.83;15.83;;;;;;;13.42;100.00;95757.00;6107917;23;20041;-90
2023/04/21 08:41:03;;;;;;;22.63;16.07;;;;;;;13.73;100.00;95761.13;6106852;23;20073;-90
2023/04/21 08:43:40;;;;;;;21.70;16.23;;;;;;;13.93;100.00;95752.56;6107468;23;20009;-91
2023/04/21 08:46:07;;;;;;;19.90;15.53;;;;;;;15.11;100.00;95743.63;6107234;23;20080;-90
2023/04/21 08:48:37;;;;;;;18.77;14.87;;;;;;;15.07;100.00;95750.34;6107289;23;20021;-90
2023/04/21 08:51:22;;;;;;;19.42;14.52;;;;;;;14.41;100.00;95757.97;6109433;23;20017;-91
2023/04/21 08:53:56;;;;;;;19.30;15.23;;;;;;;14.81;100.00;95751.06;6118565;23;20005;-91
2023/04/21 08:56:25;;;;;;;19.13;13.63;;;;;;;14.74;100.00;95748.41;6121794;23;20204;-91
2023/04/21 08:58:50;;;;;;;20.13;14.97;;;;;;;13.54;100.00;95767.88;6108317;23;20024;-91
2023/04/21 09:01:19;;;;;;;19.25;15.02;;;;;;;13.64;100.00;95762.28;6107492;23;20021;-90
2023/04/21 09:03:45;;;;;;;21.30;15.90;;;;;;;14.12;100.00;95767.75;6131712;23;20428;-91
2023/04/21 09:06:16;;;;;;;19.85;15.35;;;;;;;14.10;100.00;95765.28;6107305;23;20013;-89
2023/04/21 09:09:01;;;;;;;20.93;14.83;;;;;;;14.13;100.00;95770.19;6132377;23;20028;-90
2023/04/21 09:11:32;;;;;;;18.13;13.70;;;;;;;13.72;100.00;95770.09;6107569;23;20088;-91
2023/04/21 09:14:04;;;;;;;19.63;14.07;;;;;;;14.12;100.00;95773.84;6106820;23;20045;-91
2023/04/21 09:16:34;;;;;;;21.90;15.73;;;;;;;13.73;100.00;95778.81;6112880;23;20013;-90
2023/04/21 09:19:15;;;;;;;20.80;14.97;;;;;;;13.34;100.00;95782.69;6136395;23;20013;-91
2023/04/21 09:21:42;;;;;;;17.70;13.37;;;;;;;13.41;100.00;95783.59;6160357;23;20017;-91
2023/04/21 09:24:08;;;;;;;18.57;14.97;;;;;;;13.69;100.00;95778.38;6135718;23;20005;-91
2023/04/21 09:26:34;;;;;;;18.87;15.17;;;;;;;14.61;100.00;95772.16;6129340;23;20019;-82
2023/04/21 09:29:05;;;;;;;19.13;14.13;;;;;;;15.45;100.00;95769.19;6128305;23;20047;-82
2023/04/21 09:31:34;;;;;;;19.63;14.73;;;;;;;14.80;100.00;95771.44;6154766;23;20020;-81
2023/04/21 09:34:00;;;;;;;19.30;14.73;;;;;;;14.71;100.00;95777.09;6130616;23;20639;-82
2023/04/21 09:36:29;;;;;;;18.98;14.10;;;;;;;14.26;100.00;95774.75;6133615;23;20028;-82
2023/04/21 09:39:03;;;;;;;18.45;14.57;;;;;;;13.62;100.00;95778.31;6135144;23;20174;-83
2023/04/21 09:41:35;;;;;;;18.50;14.80;;;;;;;13.80;100.00;95782.34;6155382;23;19997;-85
2023/04/21 09:44:03;;;;;;;17.50;13.73;;;;;;;15.54;100.00;95775.94;6155610;23;20009;-84
2023/04/21 09:46:42;;;;;;;;;;;;;;;;;;;;;
2023/04/21 09:53:07;;;;;;;;;;;;;;;;;;;;;
2023/04/21 09:55:59;;;;;;;;;;;;;;;;;;;;;
2023/04/21 09:58:53;;;;;;;14.88;11.48;;;;;;;14.26;100.00;95766.03;6155991;23;20083;-84
2023/04/21 10:02:00;;;;;;;;;;;;;;;;;;;;;
2023/04/21 10:04:20;;;;;;;17.20;13.70;;;;;;;14.32;100.00;95768.72;6151683;23;20017;-85
2023/04/21 10:06:48;;;;;;;16.98;13.23;;;;;;;14.13;100.00;95769.38;6155779;23;20012;-83
2023/04/21 10:09:18;;;;;;;18.50;13.45;;;;;;;13.79;100.00;95770.94;6131103;23;20092;-84
2023/04/21 10:11:51;;;;;;;16.88;12.30;;;;;;;13.82;100.00;95772.41;6154893;23;20017;-84
2023/04/21 10:14:17;;;;;;;16.13;12.23;;;;;;;14.60;100.00;95762.59;6130641;23;20115;-84
2023/04/21 10:16:43;;;;;;;15.93;12.45;;;;;;;15.07;100.00;95750.34;6130086;23;20101;-84
2023/04/21 10:19:28;;;;;;;15.15;12.13;;;;;;;14.76;100.00;95750.84;6130989;23;20008;-84
2023/04/21 10:21:56;;;;;;;14.95;12.07;;;;;;;15.97;100.00;95750.94;6154976;23;20008;-84
2023/04/21 10:24:30;;;;;;;14.73;11.70;;;;;;;15.88;100.00;95758.25;6131747;23;20020;-84
2023/04/21 10:27:14;;;;;;;14.45;11.75;;;;;;;15.33;100.00;95761.03;6157171;23;20020;-83
2023/04/21 10:30:02;;;;;;;18.38;13.02;;;;;;;15.18;100.00;95755.06;6157896;23;20397;-81
2023/04/21 10:33:32;;;;;;;15.13;11.07;;;;;;;15.70;100.00;95750.09;6159221;23;20096;-80
2023/04/21 10:36:48;;;;;;;16.63;11.30;;;;;;;16.00;100.00;95739.91;6162107;23;20097;-82
2023/04/21 10:39:32;;;;;;;13.23;10.35;;;;;;;15.96;100.00;95750.13;6151110;23;20001;-81
2023/04/21 10:42:21;;;;;;;13.63;9.82;;;;;;;16.25;100.00;95727.63;6128272;23;20392;-82
2023/04/21 10:44:53;;;;;;;12.25;9.35;;;;;;;16.71;100.00;95729.34;6153584;23;20406;-82
2023/04/21 10:47:37;;;;;;;13.52;10.60;;;;;;;16.80;100.00;95718.50;6155272;23;20021;-83
2023/04/21 10:50:44;;;;;;;14.02;10.02;;;;;;;16.62;100.00;95727.94;6155408;23;20793;-82
2023/04/21 10:53:11;;;;;;;11.57;9.15;;;;;;;17.38;100.00;95724.56;6129882;23;20063;-82
2023/04/21 10:55:47;;;;;;;12.70;9.35;;;;;;;17.31;100.00;95725.63;6158950;23;20017;-82
2023/04/21 10:58:15;;;;;;;12.68;9.80;;;;;;;17.01;100.00;95730.69;6133596;23;20550;-82
2023/04/21 11:00:42;;;;;;;11.32;9.27;;;;;;;17.52;100.00;95735.09;6133707;23;20016;-82
2023/04/21 11:03:07;;;;;;;11.90;9.15;;;;;;;17.67;100.00;95723.16;6158188;23;20013;-83
2023/04/21 11:05:39;;;;;;;12.00;9.30;;;;;;;17.94;100.00;95714.16;6134411;23;20024;-83
2023/04/21 11:08:13;;;;;;;12.88;9.70;;;;;;;18.28;100.00;95726.13;6158402;23;20070;-82
2023/04/21 11:10:45;;;;;;;13.00;11.10;;;;;;;17.26;100.00;95736.06;6158181;23;20098;-82
2023/04/21 11:13:13;;;;;;;13.35;9.20;;;;;;;17.70;100.00;95707.75;6156452;23;20017;-82
2023/04/21 11:15:59;;;;;;;14.90;11.73;;;;;;;17.86;100.00;95717.91;6158527;23;20569;-84
2023/04/21 11:18:43;;;;;;;11.88;8.93;;;;;;;17.40;100.00;95719.00;6132055;23;20016;-83
2023/04/21 11:21:21;;;;;;;10.18;7.85;;;;;;;18.79;100.00;95706.34;6156734;23;20028;-83
2023/04/21 11:23:55;;;;;;;10.77;7.95;;;;;;;17.71;100.00;95712.06;6132813;23;20012;-83
2023/04/21 11:29:49;;;;;;;11.20;8.65;;;;;;;18.04;100.00;95699.34;6181496;23;20546;-83
2023/04/21 11:32:18;;;;;;;11.63;8.48;;;;;;;18.23;100.00;95697.50;6132095;23;20890;-83
2023/04/21 11:34:46;;;;;;;13.32;9.88;;;;;;;18.99;100.00;95690.94;6157647;23;20037;-83
2023/04/21 11:37:26;;;;;;;14.23;11.88;;;;;;;18.57;100.00;95677.47;6158628;23;20005;-85
2023/04/21 11:39:59;;;;;;;14.52;10.82;;;;;;;18.43;100.00;95685.84;6135041;23;20516;-85
2023/04/21 11:42:25;;;;;;;15.07;10.43;;;;;;;17.72;100.00;95689.75;6136390;23;20104;-85
2023/04/21 11:44:56;;;;;;;14.57;10.50;;;;;;;18.70;100.00;95675.69;6160175;23;20099;-85
2023/04/21 11:47:39;;;;;;;14.10;10.75;;;;;;;19.38;100.00;95686.06;6159415;23;20063;-85
2023/04/21 11:50:31;;;;;;;14.75;11.52;;;;;;;19.10;100.00;95688.53;6134506;23;20351;-86
2023/04/21 11:53:00;;;;;;;16.23;11.95;;;;;;;18.61;100.00;95693.81;6156490;23;20019;-85
2023/04/21 11:55:28;;;;;;;12.75;10.50;;;;;;;18.48;100.00;95689.47;6131034;23;20019;-85
2023/04/21 11:57:56;;;;;;;14.02;11.52;;;;;;;18.31;100.00;95689.25;6133261;23;20052;-85
2023/04/21 12:00:29;;;;;;;15.02;12.02;;;;;;;19.21;100.00;95693.09;6134547;23;20083;-85
2023/04/21 12:02:59;;;;;;;;;;;;;;;19.08;100.00;95691.44;6135414;23;20012;-85
2023/04/21 12:05:34;;;;;;;14.88;10.90;;;;;;;19.50;100.00;95686.91;6132787;23;19919;-85
2023/04/21 12:08:13;;;;;;;13.02;10.20;;;;;;;20.11;100.00;95686.78;6132003;23;20025;-85
2023/04/21 12:10:49;;;;;;;12.60;10.00;;;;;;;20.28;100.00;95687.69;6156339;23;20010;-85
2023/04/21 12:13:22;;;;;;;14.30;10.05;;;;;;;19.68;100.00;95693.25;6156589;23;20017;-85
2023/04/21 12:15:50;;;;;;;13.77;10.73;;;;;;;18.74;100.00;95693.69;6132705;23;20310;-85
2023/04/21 12:18:31;;;;;;;10.98;9.30;;;;;;;20.40;100.00;95683.16;6158708;23;20104;-84
2023/04/21 12:21:01;;;;;;;13.13;9.95;;;;;;;20.21;100.00;95682.47;6136919;23;20012;-85
2023/04/21 12:23:32;;;;;;;11.95;9.95;;;;;;;20.58;100.00;95684.09;6136998;23;20105;-85
2023/04/21 12:26:00;;;;;;;12.27;10.50;;;;;;;20.58;100.00;95684.09;6129597;23;20414;-85
2023/04/21 12:28:25;;;;;;;13.57;10.77;;;;;;;20.49;100.00;95679.09;6131696;23;20252;-85
2023/04/21 12:30:52;;;;;;;13.13;10.30;;;;;;;20.68;100.00;95671.75;6159914;23;20020;-85
2023/04/21 12:33:19;;;;;;;12.73;9.98;;;;;;;20.32;100.00;95680.88;6131480;23;20345;-83
2023/04/21 12:35:55;;;;;;;14.63;10.73;;;;;;;19.55;100.00;95687.06;6156058;23;20381;-82
2023/04/21 12:38:23;;;;;;;12.02;10.10;;;;;;;19.35;100.00;95681.22;6156500;23;20801;-84
2023/04/21 12:40:49;;;;;;;12.18;10.23;;;;;;;19.89;100.00;95674.03;6155576;23;20016;-83
2023/04/21 12:43:23;;;;;;;12.57;10.15;;;;;;;19.89;100.00;95674.03;6130313;23;20687;-85
2023/04/21 12:45:51;;;;;;;11.70;9.68;;;;;;;20.64;100.00;95659.13;6155522;23;20009;-85
2023/04/21 12:48:20;;;;;;;11.93;9.65;;;;;;;20.23;100.00;95656.38;6131431;23;20020;-85
2023/04/21 12:50:46;;;;;;;12.05;10.00;;;;;;;20.63;100.00;95665.50;6156352;23;20045;-84
2023/04/21 12:53:18;;;;;;;13.93;10.25;;;;;;;18.85;100.00;95668.16;6155943;23;20055;-85
2023/04/21 12:55:44;;;;;;;12.70;9.30;;;;;;;20.07;100.00;95657.06;6156042;23;20020;-86
2023/04/21 12:58:14;;;;;;;12.75;9.95;;;;;;;19.66;100.00;95663.31;6131357;23;20009;-85
2023/04/21 13:00:49;;;;;;;12.25;9.48;;;;;;;20.00;100.00;95664.38;6130926;23;20406;-85
2023/04/21 13:03:15;;;;;;;11.68;9.50;;;;;;;18.90;100.00;95670.94;6130816;23;20020;-85
2023/04/21 13:05:48;;;;;;;11.65;9.25;;;;;;;20.16;100.00;95657.53;6132404;23;20107;-88
2023/04/21 13:08:15;;;;;;;14.05;10.88;;;;;;;20.35;100.00;95651.00;6131779;23;20090;-89
2023/04/21 13:10:40;;;;;;;11.48;9.25;;;;;;;20.13;100.00;95652.66;6156771;23;20021;-89
2023/04/21 13:13:06;;;;;;;13.85;9.55;;;;;;;20.16;100.00;95657.53;6132075;23;20005;-85
2023/04/21 13:15:32;;;;;;;11.77;9.30;;;;;;;18.63;100.00;95653.66;6157530;23;20012;-82
2023/04/21 13:17:57;;;;;;;13.65;9.45;;;;;;;19.52;100.00;95652.84;6151053;23;20357;-89
2023/04/21 13:20:30;;;;;;;12.90;9.38;;;;;;;19.89;100.00;95634.00;6127958;23;20442;-88
2023/04/21 13:22:56;;;;;;;11.57;9.10;;;;;;;18.97;100.00;95649.53;6155265;23;20013;-87
2023/04/21 13:25:22;;;;;;;10.32;8.90;;;;;;;19.29;100.00;95637.59;6105089;23;20069;-88
2023/04/21 13:27:48;;;;;;;12.32;9.50;;;;;;;19.13;100.00;95635.59;6106282;23;20022;-89
2023/04/21 13:30:16;;;;;;;14.25;9.23;;;;;;;20.00;100.00;95627.84;6103269;23;20530;-89
2023/04/21 13:32:45;;;;;;;13.43;9.93;;;;;;;20.10;100.00;95626.44;6102120;23;20406;-89
2023/04/21 13:35:13;;;;;;;11.43;8.50;;;;;;;19.48;100.00;95638.34;6104387;23;20516;-89
2023/04/21 13:37:40;;;;;;;10.45;7.90;;;;;;;19.64;100.00;95630.72;6108297;23;20020;-89
2023/04/21 13:40:08;;;;;;;11.60;8.52;;;;;;;19.98;100.00;95627.25;6103782;23;20073;-89
2023/04/21 13:42:35;;;;;;;10.80;7.68;;;;;;;20.14;100.00;95624.91;6102646;23;20020;-90
2023/04/21 13:45:04;;;;;;;9.95;7.85;;;;;;;20.40;100.00;95621.75;6103402;23;20009;-90
2023/04/21 13:47:34;;;;;;;9.13;6.80;;;;;;;20.19;100.00;95620.50;6131822;23;20024;-89
2023/04/21 13:50:00;;;;;;;10.15;8.30;;;;;;;20.69;100.00;95614.63;6149935;23;20044;-89
2023/04/21 13:52:26;;;;;;;8.38;6.93;;;;;;;20.42;100.00;95614.31;6150849;23;20001;-89
2023/04/21 13:54:53;;;;;;;10.95;8.20;;;;;;;20.40;100.00;95605.72;6126047;23;20033;-87
2023/04/21 13:57:19;;;;;;;10.32;8.00;;;;;;;20.85;100.00;95604.19;6118736;23;20017;-89
2023/04/21 13:59:53;;;;;;;10.25;7.68;;;;;;;20.41;100.00;95610.00;6131637;23;20090;-89
2023/04/21 14:02:35;;;;;;;10.75;8.30;;;;;;;19.62;100.00;95614.94;6106096;23;20024;-89
2023/04/21 14:05:09;;;;;;;12.15;7.53;;;;;;;19.21;100.00;95608.59;6104264;23;20097;-89
2023/04/21 14:07:41;;;;;;;10.27;6.93;;;;;;;19.18;100.00;95606.41;6116743;23;20010;-89
2023/04/21 14:10:08;;;;;;;11.43;8.40;;;;;;;19.15;100.00;95603.34;6102815;23;20103;-89
2023/04/21 14:12:37;;;;;;;11.05;7.75;;;;;;;18.69;100.00;95600.31;6151738;23;20024;-89
2023/04/21 14:15:05;;;;;;;9.90;7.30;;;;;;;18.26;100.00;95603.09;6103009;23;20001;-90
2023/04/21 14:17:31;;;;;;;8.68;5.32;;;;;;;18.25;100.00;95604.13;6145950;23;20021;-89
2023/04/21 14:20:00;;;;;;;8.27;3.33;;;;;;;18.78;100.00;95603.50;6132183;23;20095;-89
2023/04/21 14:22:27;;;;;;;7.15;2.35;;;;;;;18.69;100.00;95599.50;6131700;23;20015;-89
2023/04/21 14:24:54;;;;;;;3.20;1.52;;;;;;;18.56;98.76;95595.97;6131486;23;20005;-89
2023/04/21 14:27:24;;;;;;;3.08;1.88;;;;;;;18.51;99.25;95589.66;6156501;23;20441;-89
2023/04/21 14:29:50;;;;;;;2.83;1.70;;;;;;;18.76;98.71;95586.94;6156845;23;20086;-89
2023/04/21 14:32:25;;;;;;;4.63;2.03;;;;;;;18.67;100.00;95590.91;6131359;23;20013;-89
2023/04/21 14:35:07;;;;;;;4.50;2.08;;;;;;;18.41;100.00;95592.06;6155661;23;20016;-87
2023/04/21 14:37:33;;;;;;;4.00;2.20;;;;;;;18.75;100.00;95578.13;6156372;23;20021;-90
2023/04/21 14:40:02;;;;;;;4.50;2.35;;;;;;;18.63;100.00;95585.22;6156731;23;20047;-89
2023/04/21 14:42:54;;;;;;;5.72;2.40;;;;;;;18.34;100.00;95592.97;6132087;23;20015;-89
2023/04/21 14:45:20;;;;;;;3.30;2.10;;;;;;;18.13;100.00;95580.91;6131813;23;20040;-89
2023/04/21 14:47:46;;;;;;;4.57;2.65;;;;;;;18.40;100.00;95580.59;6138309;23;20021;-89
2023/04/21 14:50:13;;;;;;;4.63;2.60;;;;;;;18.29;100.00;95574.19;6139178;23;20013;-89
2023/04/21 14:52:41;;;;;;;5.25;3.50;;;;;;;18.21;100.00;95576.31;6157642;23;20481;-89
2023/04/21 14:55:17;;;;;;;4.72;3.33;;;;;;;18.01;100.00;95576.56;6131191;23;20000;-90
2023/04/21 14:57:46;;;;;;;6.50;3.92;;;;;;;17.70;100.00;95580.94;6155274;23;20020;-89
2023/04/21 15:00:14;;;;;;;6.28;4.20;;;;;;;18.13;100.00;95575.59;6132253;23;20016;-89
2023/04/21 15:02:40;;;;;;;5.85;3.70;;;;;;;17.94;100.00;95576.66;6156553;23;20013;-89
2023/04/21 15:05:07;;;;;;;5.88;3.70;;;;;;;17.95;100.00;95572.13;6132013;23;20005;-88
2023/04/21 15:07:33;;;;;;;7.55;3.63;;;;;;;18.21;100.00;95577.16;6133159;23;20079;-89
2023/04/21 15:09:58;;;;;;;6.35;3.97;;;;;;;17.84;100.00;95571.00;6131237;23;20008;-90
2023/04/21 15:12:24;;;;;;;6.43;3.05;;;;;;;18.08;100.00;95583.44;6127695;23;20016;-90
2023/04/21 15:14:51;;;;;;;4.40;2.90;;;;;;;18.05;100.00;95578.56;6128339;23;20084;-90
2023/04/21 15:17:16;;;;;;;6.35;3.38;;;;;;;18.23;100.00;95576.91;6129876;23;20040;-89
2023/04/21 15:19:42;;;;;;;5.57;3.25;;;;;;;18.31;100.00;95576.63;6130168;23;20041;-90
2023/04/21 15:22:08;;;;;;;6.32;3.55;;;;;;;18.03;100.00;95571.81;6140208;23;20020;-90
2023/04/21 15:24:35;;;;;;;6.05;3.17;;;;;;;18.28;100.00;95572.56;6129437;23;20017;-90
2023/04/21 15:27:01;;;;;;;7.65;3.33;;;;;;;17.92;100.00;95572.56;6157396;23;20017;-90
2023/04/21 15:29:34;;;;;;;5.20;3.67;;;;;;;18.29;100.00;95571.53;6138823;23;20009;-90
2023/04/21 15:32:05;;;;;;;6.75;4.13;;;;;;;18.32;100.00;95572.94;6130416;23;20037;-88
2023/04/21 15:34:31;;;;;;;7.10;4.00;;;;;;;18.10;100.00;95564.59;6155633;23;20326;-90
2023/04/21 15:36:56;;;;;;;6.13;3.97;;;;;;;17.91;100.00;95561.13;6156056;23;20092;-90
2023/04/21 15:39:23;;;;;;;9.35;3.55;;;;;;;17.95;100.00;95564.97;6132598;23;20017;-90
2023/04/21 15:41:50;;;;;;;5.25;3.20;;;;;;;18.19;100.00;95557.13;6158450;23;20072;-90
2023/04/21 15:44:16;;;;;;;5.85;3.72;;;;;;;17.84;100.00;95561.19;6133682;23;20017;-89
2023/04/21 15:46:56;;;;;;;5.93;3.38;;;;;;;17.79;100.00;95557.56;6158128;23;20017;-90
2023/04/21 15:49:23;;;;;;;5.47;4.03;;;;;;;17.89;100.00;95563.19;6134109;23;20009;-90
2023/04/21 15:51:50;;;;;;;6.90;3.50;;;;;;;17.96;100.00;95569.25;6134666;23;20052;-90
2023/04/21 15:54:16;;;;;;;7.85;3.92;;;;;;;17.97;100.00;95568.19;6134938;23;20013;-91
2023/04/21 15:56:42;;;;;;;5.93;3.83;;;;;;;17.96;100.00;95566.56;6143696;23;20013;-90
2023/04/21 15:59:07;;;;;;;7.05;4.00;;;;;;;18.12;100.00;95557.19;6133094;23;20436;-90
2023/04/21 16:01:38;;;;;;;6.50;3.60;;;;;;;18.11;100.00;95559.06;6185052;23;20056;-90
2023/04/21 16:04:04;;;;;;;5.32;3.70;;;;;;;17.92;100.00;95562.75;6134296;23;20019;-90
2023/04/21 16:06:30;;;;;;;6.93;3.72;;;;;;;17.95;100.00;95554.31;6130697;23;20084;-90
2023/04/21 16:08:56;;;;;;;5.38;3.30;;;;;;;17.99;100.00;95550.19;6131453;23;20075;-90
2023/04/21 16:11:22;;;;;;;5.35;3.50;;;;;;;18.00;100.00;95549.13;6130453;23;20009;-90
2023/04/21 16:13:50;;;;;;;4.07;2.70;;;;;;;17.95;100.00;95546.34;6132598;23;20020;-90
2023/04/21 16:16:16;;;;;;;5.35;3.30;;;;;;;18.00;100.00;95543.81;6157941;23;20013;-89
2023/04/21 16:18:42;;;;;;;5.18;2.85;;;;;;;17.82;100.00;95549.16;6131177;23;20013;-90
2023/04/21 16:21:09;;;;;;;5.95;2.53;;;;;;;17.70;100.00;95548.22;6151632;23;20017;-90
2023/04/21 16:23:35;;;;;;;5.45;3.08;;;;;;;17.72;100.00;95543.50;6150821;23;20023;-90
2023/04/21 16:26:03;;;;;;;5.72;3.25;;;;;;;17.67;100.00;95549.47;6127390;23;20005;-90
2023/04/21 16:28:29;;;;;;;7.97;3.97;;;;;;;17.60;100.00;95546.88;6128698;23;20339;-90
2023/04/21 16:30:55;;;;;;;4.78;2.92;;;;;;;17.80;100.00;95540.56;6128236;23;20012;-90
2023/04/21 16:33:20;;;;;;;6.18;2.90;;;;;;;17.74;100.00;95542.25;6153088;23;20053;-90
2023/04/21 16:35:46;;;;;;;4.80;2.70;;;;;;;17.78;100.00;95540.00;6132100;23;20013;-90
2023/04/21 16:38:14;;;;;;;5.25;3.00;;;;;;;17.62;100.00;95542.16;6132784;23;20024;-90
2023/04/21 16:40:40;;;;;;;6.20;4.15;;;;;;;17.51;100.00;95542.06;6156729;23;20009;-90